Time;durP1;ratioP1;P1;durP2;ratioP2;P2;SDS_P1;SDS_P2;PMS_P1;PMS_P2;Temp;Humidity;BMP_temperature;BMP_pressure;BME280_temperature;BME280_humidity;BME280_pressure;Samples;Min_cycle;Max_cycle;Signal;HPM_P1;HPM_P2
2023/06/29 00:02:10;;;;;;;27.83;17.85;;;;;;;21.40;80.55;101542.28;5034746;28;20475;-63
2023/06/29 00:04:36;;;;;;;28.38;17.88;;;;;;;21.46;80.10;101538.59;5034712;28;20112;-63
2023/06/29 00:07:02;;;;;;;25.80;17.83;;;;;;;21.43;80.82;101539.53;5036338;28;20368;-63
2023/06/29 00:09:28;;;;;;;24.52;17.40;;;;;;;21.35;81.14;101546.00;5035947;28;20474;-64
2023/06/29 00:11:55;;;;;;;25.48;16.63;;;;;;;21.39;81.22;101535.16;5035759;28;20017;-63
2023/06/29 00:14:20;;;;;;;24.85;16.73;;;;;;;21.41;81.39;101532.41;5036177;28;20116;-63
2023/06/29 00:16:50;;;;;;;25.38;18.40;;;;;;;21.37;81.18;101528.03;5035903;28;20466;-62
2023/06/29 00:19:16;;;;;;;26.42;16.95;;;;;;;21.41;81.13;101519.88;5035794;28;20356;-63
2023/06/29 00:21:41;;;;;;;27.98;18.55;;;;;;;21.44;81.08;101526.97;5035762;28;20025;-63
2023/06/29 00:24:11;;;;;;;28.85;18.00;;;;;;;21.49;80.49;101523.25;5035621;28;20068;-62
2023/06/29 00:26:38;;;;;;;27.15;18.17;;;;;;;21.47;80.90;101518.84;5035854;28;20034;-63
2023/06/29 00:29:04;;;;;;;23.60;17.65;;;;;;;21.50;80.54;101516.09;5034613;28;20026;-61
2023/06/29 00:31:29;;;;;;;22.00;17.00;;;;;;;21.55;81.00;101516.88;5035411;28;20415;-63
2023/06/29 00:33:55;;;;;;;25.75;16.40;;;;;;;21.55;80.80;101511.47;5035565;28;20087;-63
2023/06/29 00:36:20;;;;;;;25.40;16.95;;;;;;;21.60;80.65;101522.13;5035238;28;20033;-63
2023/06/29 00:38:46;;;;;;;23.73;17.08;;;;;;;21.59;81.23;101509.59;5035173;28;20124;-63
2023/06/29 00:41:11;;;;;;;24.00;16.63;;;;;;;21.49;81.52;101509.81;5035280;28;20030;-62
2023/06/29 00:43:37;;;;;;;22.88;17.83;;;;;;;21.52;81.15;101503.47;5033767;28;20391;-62
2023/06/29 00:46:07;;;;;;;24.33;17.17;;;;;;;21.56;80.57;101510.56;5035396;28;20033;-63
2023/06/29 00:48:35;;;;;;;25.50;18.52;;;;;;;21.44;81.16;101506.34;5035494;28;20037;-63
2023/06/29 00:51:02;;;;;;;24.65;17.63;;;;;;;21.36;80.98;101502.06;5035332;28;20026;-64
2023/06/29 00:53:28;;;;;;;24.10;17.38;;;;;;;21.30;80.59;101504.88;5035152;28;20112;-63
2023/06/29 00:55:54;;;;;;;24.70;16.95;;;;;;;21.34;79.87;101501.22;5035051;28;20117;-64
2023/06/29 00:58:19;;;;;;;24.63;16.08;;;;;;;21.34;80.59;101506.63;5035079;28;20029;-64
2023/06/29 01:00:45;;;;;;;23.25;16.00;;;;;;;21.32;79.74;101503.94;5033758;28;20493;-63
2023/06/29 01:03:11;;;;;;;23.52;17.20;;;;;;;21.34;79.63;101499.44;5034878;28;20029;-64
2023/06/29 01:05:36;;;;;;;25.92;17.02;;;;;;;21.34;79.75;101493.16;5034874;28;20030;-63
2023/06/29 01:08:11;;;;;;;21.70;16.02;;;;;;;21.41;79.16;101492.09;5035134;28;20037;-64
2023/06/29 01:10:37;;;;;;;22.67;15.88;;;;;;;21.42;79.40;101493.88;5033549;28;20040;-64
2023/06/29 01:13:05;;;;;;;24.90;15.95;;;;;;;21.40;79.81;101484.94;5033433;28;20025;-64
2023/06/29 01:15:31;;;;;;;24.08;16.40;;;;;;;21.33;79.67;101486.03;5034854;28;20030;-64
2023/06/29 01:17:59;;;;;;;28.00;16.92;;;;;;;21.26;80.40;101485.25;5034576;28;20022;-64
2023/06/29 01:20:26;;;;;;;24.17;16.52;;;;;;;21.25;80.70;101488.84;5034534;28;20025;-64
2023/06/29 01:22:59;;;;;;;24.08;16.30;;;;;;;21.21;80.93;101479.97;5033279;28;20457;-64
2023/06/29 01:25:26;;;;;;;28.92;16.55;;;;;;;21.14;81.55;101481.03;5034874;28;20030;-64
2023/06/29 01:27:51;;;;;;;31.52;16.77;;;;;;;20.98;82.64;101482.28;5034755;28;20029;-64
2023/06/29 01:30:17;;;;;;;23.10;16.60;;;;;;;20.90;82.92;101473.53;5034202;28;20485;-64
2023/06/29 01:32:43;;;;;;;26.63;16.65;;;;;;;20.90;82.26;101476.22;5034551;28;20374;-63
2023/06/29 01:35:09;;;;;;;26.15;16.83;;;;;;;20.87;82.98;101489.72;5034135;28;20038;-64
2023/06/29 01:37:42;;;;;;;24.98;17.33;;;;;;;20.84;82.98;101485.28;5034412;28;20024;-64
2023/06/29 01:40:10;;;;;;;25.52;16.65;;;;;;;20.93;83.00;101481.50;5034074;28;20076;-64
2023/06/29 01:42:38;;;;;;;24.38;17.02;;;;;;;21.00;82.30;101472.41;5034225;28;20053;-64
2023/06/29 01:45:05;;;;;;;24.48;17.70;;;;;;;21.09;81.20;101471.31;5034384;28;20025;-65
2023/06/29 01:47:31;;;;;;;23.95;16.25;;;;;;;21.12;80.16;101469.44;5034046;28;20383;-64
2023/06/29 01:49:58;;;;;;;25.08;16.17;;;;;;;21.15;80.80;101472.03;5034289;28;20029;-64
2023/06/29 01:52:25;;;;;;;26.40;17.08;;;;;;;21.20;80.94;101467.47;5034284;28;20387;-64
2023/06/29 01:54:50;;;;;;;24.65;16.90;;;;;;;21.18;80.82;101469.28;5033181;28;20033;-63
2023/06/29 01:57:16;;;;;;;25.67;17.08;;;;;;;21.18;81.05;101468.41;5033946;28;20021;-63
2023/06/29 01:59:44;;;;;;;25.55;17.55;;;;;;;21.22;81.06;101462.91;5033983;28;20032;-63
2023/06/29 02:02:09;;;;;;;28.63;17.33;;;;;;;21.27;80.74;101465.50;5033683;28;20029;-64
2023/06/29 02:04:35;;;;;;;24.15;16.85;;;;;;;21.27;80.76;101462.81;5032657;28;20391;-64
2023/06/29 02:07:00;;;;;;;25.20;16.38;;;;;;;21.25;80.82;101460.16;5033842;28;20029;-63
2023/06/29 02:09:26;;;;;;;26.65;15.98;;;;;;;21.28;80.80;101459.19;5033691;28;20518;-64
2023/06/29 02:11:51;;;;;;;27.30;16.65;;;;;;;21.23;81.11;101458.44;5033700;28;20418;-63
2023/06/29 02:14:17;;;;;;;26.45;16.88;;;;;;;21.19;80.52;101457.59;5033650;28;20372;-63
2023/06/29 02:16:46;;;;;;;25.35;17.30;;;;;;;21.20;80.99;101459.41;5033636;28;20394;-63
2023/06/29 02:19:12;;;;;;;25.95;16.30;;;;;;;21.24;80.89;101461.09;5033774;28;20026;-63
2023/06/29 02:21:38;;;;;;;25.30;16.65;;;;;;;21.25;81.24;101454.78;5033445;28;20372;-63
2023/06/29 02:24:03;;;;;;;30.95;17.10;;;;;;;21.21;81.29;101452.22;5033734;28;20030;-63
2023/06/29 02:26:29;;;;;;;27.23;17.55;;;;;;;21.21;81.20;101452.22;5033376;28;20504;-63
2023/06/29 02:28:54;;;;;;;26.10;17.55;;;;;;;21.13;81.32;101444.31;5033631;28;20040;-63
2023/06/29 02:31:19;;;;;;;25.88;17.00;;;;;;;21.14;81.72;101446.09;5033241;28;20479;-63
2023/06/29 02:33:45;;;;;;;25.98;16.58;;;;;;;21.22;81.48;101436.03;5033498;28;20096;-62
2023/06/29 02:36:11;;;;;;;23.20;16.83;;;;;;;21.20;80.69;101447.78;5033496;28;20028;-63
2023/06/29 02:38:37;;;;;;;23.52;16.75;;;;;;;21.18;81.32;101445.09;5033086;28;20095;-63
2023/06/29 02:41:02;;;;;;;25.70;17.27;;;;;;;21.17;81.55;101437.09;5032989;28;20403;-63
2023/06/29 02:43:29;;;;;;;25.05;16.25;;;;;;;21.18;81.43;101444.22;5033399;28;20042;-62
2023/06/29 02:45:54;;;;;;;24.50;17.20;;;;;;;21.19;81.70;101437.91;5033318;28;20433;-63
2023/06/29 02:48:20;;;;;;;24.65;16.67;;;;;;;21.22;81.25;101438.72;5033104;28;20026;-63
2023/06/29 02:50:45;;;;;;;23.60;16.65;;;;;;;21.20;80.86;101434.34;5033058;28;20029;-62
2023/06/29 02:53:14;;;;;;;22.80;16.92;;;;;;;21.23;81.20;101434.25;5033083;28;20450;-63
2023/06/29 02:55:39;;;;;;;24.95;16.92;;;;;;;21.19;81.41;101425.34;5033125;28;20033;-64
2023/06/29 02:58:05;;;;;;;27.25;18.05;;;;;;;21.15;80.75;101429.03;5031846;28;20427;-63
2023/06/29 03:00:30;;;;;;;24.38;17.33;;;;;;;21.10;81.81;101425.59;5032796;28;20479;-63
2023/06/29 03:02:56;;;;;;;21.08;15.20;;;;;;;21.16;80.37;101432.63;5032866;28;20061;-63
2023/06/29 03:05:21;;;;;;;27.52;18.17;;;;;;;21.07;82.03;101430.13;5031447;28;20044;-63
2023/06/29 03:07:46;;;;;;;22.02;15.85;;;;;;;21.05;80.74;101426.63;5032840;28;20049;-62
2023/06/29 03:10:12;;;;;;;28.67;19.15;;;;;;;20.87;82.97;101428.81;5032873;28;20026;-63
2023/06/29 03:12:37;;;;;;;29.50;18.95;;;;;;;20.83;83.24;101429.78;5031409;28;20479;-63
2023/06/29 03:15:04;;;;;;;26.83;19.75;;;;;;;20.79;83.82;101428.09;5032903;28;20026;-64
2023/06/29 03:17:29;;;;;;;29.70;18.45;;;;;;;20.79;83.43;101419.16;5032772;28;20108;-63
2023/06/29 03:19:55;;;;;;;32.28;18.65;;;;;;;20.83;83.41;101421.72;5031658;28;20116;-62
2023/06/29 03:22:20;;;;;;;29.75;18.65;;;;;;;20.87;83.09;101420.75;5033105;28;20026;-63
2023/06/29 03:24:46;;;;;;;24.80;18.05;;;;;;;20.94;83.03;101426.84;5033038;28;20498;-63
2023/06/29 03:27:11;;;;;;;27.67;18.35;;;;;;;20.97;82.81;101424.09;5032706;28;20017;-63
2023/06/29 03:29:37;;;;;;;24.75;17.33;;;;;;;21.04;82.83;101415.00;5031764;28;20084;-63
2023/06/29 03:32:02;;;;;;;26.30;18.33;;;;;;;21.05;82.46;101416.75;5031324;28;20037;-62
2023/06/29 03:34:28;;;;;;;30.65;17.95;;;;;;;21.04;82.43;101417.69;5031730;28;20252;-63
2023/06/29 03:36:53;;;;;;;24.75;18.38;;;;;;;21.09;82.37;101418.44;5032550;28;20089;-63
2023/06/29 03:39:19;;;;;;;26.85;18.08;;;;;;;21.13;81.82;101416.56;5032368;28;20045;-63
2023/06/29 03:41:44;;;;;;;29.80;18.15;;;;;;;21.12;82.59;101407.63;5032605;28;20036;-63
2023/06/29 03:44:10;;;;;;;23.77;17.10;;;;;;;21.12;81.97;101417.50;5031661;28;20053;-64
2023/06/29 03:46:36;;;;;;;27.10;18.42;;;;;;;21.05;82.65;101413.19;5014783;28;20033;-63
2023/06/29 03:49:01;;;;;;;28.52;18.05;;;;;;;21.03;82.57;101410.53;5032599;28;20030;-64
2023/06/29 03:51:26;;;;;;;30.15;18.75;;;;;;;21.01;82.77;101410.56;5032493;28;20022;-63
2023/06/29 03:53:52;;;;;;;28.77;19.05;;;;;;;20.97;83.24;101413.34;5032423;28;20108;-64
2023/06/29 03:56:17;;;;;;;29.80;18.05;;;;;;;20.96;83.21;101411.59;5032529;28;20064;-64
2023/06/29 03:58:42;;;;;;;27.42;17.10;;;;;;;20.97;82.14;101405.28;5032336;28;20028;-64
2023/06/29 04:01:08;;;;;;;29.90;18.65;;;;;;;20.86;83.33;101407.38;5032315;28;20029;-64
2023/06/29 04:03:33;;;;;;;31.75;19.55;;;;;;;20.79;83.65;101403.03;5032385;28;20026;-64
2023/06/29 04:05:59;;;;;;;29.10;19.13;;;;;;;20.75;83.79;101407.59;5031069;28;20029;-64
2023/06/29 04:08:24;;;;;;;29.13;18.75;;;;;;;20.75;83.31;101402.22;5032333;28;20521;-64
2023/06/29 04:10:50;;;;;;;28.13;19.70;;;;;;;20.76;83.19;101401.28;5032277;28;20034;-63
2023/06/29 04:13:15;;;;;;;30.50;19.77;;;;;;;20.73;83.97;101394.22;5031986;28;20491;-63
2023/06/29 04:15:41;;;;;;;32.40;19.45;;;;;;;20.79;84.07;101389.59;5032135;28;20060;-63
2023/06/29 04:18:06;;;;;;;27.45;18.80;;;;;;;20.78;84.23;101394.09;5033651;28;20046;-62
2023/06/29 04:20:32;;;;;;;33.28;20.50;;;;;;;20.79;83.49;101394.97;5035919;28;20121;-63
2023/06/29 04:22:58;;;;;;;30.00;19.35;;;;;;;20.76;83.21;101387.88;5034765;28;20032;-62
2023/06/29 04:25:23;;;;;;;30.83;19.25;;;;;;;20.75;83.20;101391.47;5035678;28;20025;-63
2023/06/29 04:27:48;;;;;;;32.42;19.63;;;;;;;20.72;83.66;101387.03;5035883;28;20030;-63
2023/06/29 04:30:17;;;;;;;29.50;19.83;;;;;;;20.72;84.06;101387.03;5035397;28;20029;-63
2023/06/29 04:32:43;;;;;;;29.35;20.02;;;;;;;20.71;83.76;101395.16;5034230;28;20060;-62
2023/06/29 04:35:09;;;;;;;30.00;19.33;;;;;;;20.78;83.47;101395.91;5035518;28;20029;-63
2023/06/29 04:37:41;;;;;;;31.08;19.52;;;;;;;20.79;82.84;101390.50;5035681;28;20040;-63
2023/06/29 04:40:09;;;;;;;29.48;19.90;;;;;;;20.83;82.85;101386.81;5035193;28;20372;-63
2023/06/29 04:42:46;;;;;;;31.33;19.58;;;;;;;20.79;83.45;101390.50;5035394;28;20036;-63
2023/06/29 04:45:17;;;;;;;31.58;19.23;;;;;;;20.82;83.17;101387.75;5035278;28;20367;-63
2023/06/29 04:47:44;;;;;;;28.67;18.87;;;;;;;20.80;83.23;101386.88;5035303;28;20034;-65
2023/06/29 04:50:10;;;;;;;31.60;19.38;;;;;;;20.76;83.71;101387.88;5039625;28;20028;-63
2023/06/29 04:52:37;;;;;;;32.38;20.08;;;;;;;20.74;84.30;101378.97;5054985;28;20041;-62
2023/06/29 04:55:06;;;;;;;33.97;19.88;;;;;;;20.76;84.21;101380.69;5054935;28;20087;-63
2023/06/29 04:57:32;;;;;;;30.98;20.67;;;;;;;20.76;84.71;101379.81;5055301;28;20029;-63
2023/06/29 04:59:57;;;;;;;35.40;20.42;;;;;;;20.75;84.64;101383.41;5054877;28;20047;-63
2023/06/29 05:02:23;;;;;;;29.77;19.73;;;;;;;20.80;84.45;101383.31;5054873;28;20102;-63
2023/06/29 05:04:49;;;;;;;33.28;20.52;;;;;;;20.82;84.86;101381.50;5054873;28;20025;-63
2023/06/29 05:07:15;;;;;;;30.85;19.65;;;;;;;20.85;84.73;101379.59;5055157;28;20029;-62
2023/06/29 05:09:40;;;;;;;35.00;20.45;;;;;;;20.84;84.70;101383.19;5054905;28;20071;-62
2023/06/29 05:12:07;;;;;;;28.08;19.33;;;;;;;20.83;84.06;101383.25;5054624;28;20025;-63
2023/06/29 05:14:32;;;;;;;28.50;18.85;;;;;;;20.82;83.49;101385.06;5054939;28;20021;-62
2023/06/29 05:16:58;;;;;;;32.55;19.10;;;;;;;20.83;83.57;101380.56;5054319;28;20036;-63
2023/06/29 05:19:23;;;;;;;27.05;19.08;;;;;;;20.81;83.48;101382.38;5054718;28;20032;-63
2023/06/29 05:21:49;;;;;;;30.65;18.92;;;;;;;20.77;83.43;101381.59;5054547;28;20545;-63
2023/06/29 05:24:14;;;;;;;29.42;19.20;;;;;;;20.79;83.65;101379.75;5053695;28;20025;-63
2023/06/29 05:26:40;;;;;;;29.02;18.90;;;;;;;20.79;84.26;101378.88;5054559;28;20068;-63
2023/06/29 05:29:05;;;;;;;31.75;19.20;;;;;;;20.76;84.03;101378.00;5053280;28;20086;-63
2023/06/29 05:31:30;;;;;;;30.30;19.48;;;;;;;20.76;84.63;101377.13;5054077;28;20075;-63
2023/06/29 05:33:56;;;;;;;30.90;20.27;;;;;;;20.74;84.29;101374.47;5054624;28;20025;-63
2023/06/29 05:36:21;;;;;;;32.47;20.55;;;;;;;20.72;84.19;101375.41;5054194;28;20053;-63
2023/06/29 05:38:47;;;;;;;31.50;20.17;;;;;;;20.71;84.51;101369.16;5052806;28;20048;-62
2023/06/29 05:41:12;;;;;;;33.80;21.08;;;;;;;20.73;84.43;101377.22;5054238;28;20552;-62
2023/06/29 05:43:37;;;;;;;31.90;19.92;;;;;;;20.78;83.54;101372.63;5054158;28;20027;-62
2023/06/29 05:46:04;;;;;;;30.35;19.83;;;;;;;20.74;84.57;101377.16;5054058;28;20039;-62
2023/06/29 05:48:30;;;;;;;30.33;20.85;;;;;;;20.76;84.18;101364.56;5054162;28;20389;-62
2023/06/29 05:50:55;;;;;;;34.65;20.20;;;;;;;20.77;84.32;101370.84;5053818;28;20031;-63
2023/06/29 05:53:20;;;;;;;32.00;20.45;;;;;;;20.80;84.07;101377.94;5053856;28;20033;-63
2023/06/29 05:55:47;;;;;;;31.75;20.23;;;;;;;20.83;83.67;101378.75;5053742;28;20029;-63
2023/06/29 05:58:12;;;;;;;35.38;21.73;;;;;;;20.85;83.85;101373.34;5053951;28;20039;-63
2023/06/29 06:00:37;;;;;;;30.63;20.92;;;;;;;20.85;83.34;101367.97;5053687;28;20029;-63
2023/06/29 06:03:03;;;;;;;31.50;20.23;;;;;;;20.89;82.53;101369.66;5052382;28;20060;-63
2023/06/29 06:05:29;;;;;;;34.25;21.48;;;;;;;20.90;81.33;101372.34;5052429;28;20468;-63
2023/06/29 06:07:54;;;;;;;31.92;21.13;;;;;;;20.89;81.05;101361.59;5053543;28;20098;-62
2023/06/29 06:10:20;;;;;;;34.90;21.10;;;;;;;20.85;80.74;101363.47;5052423;28;20017;-62
2023/06/29 06:12:45;;;;;;;29.90;20.23;;;;;;;20.90;80.07;101372.34;5053453;28;20071;-63
2023/06/29 06:15:13;;;;;;;31.10;19.95;;;;;;;20.97;79.55;101362.31;5053589;28;20066;-63
2023/06/29 06:17:39;;;;;;;32.95;20.35;;;;;;;21.04;78.83;101366.63;5053344;28;20025;-63
2023/06/29 06:20:05;;;;;;;33.90;20.48;;;;;;;21.06;79.09;101366.56;5053399;28;20087;-64
2023/06/29 06:22:30;;;;;;;31.67;20.33;;;;;;;21.09;78.90;101366.50;5053458;28;20086;-63
2023/06/29 06:24:56;;;;;;;31.88;18.60;;;;;;;21.12;77.84;101364.63;5051962;28;20482;-64
2023/06/29 06:27:24;;;;;;;28.23;19.00;;;;;;;21.16;77.84;101365.44;5053262;28;20063;-64
2023/06/29 06:29:49;;;;;;;30.67;19.98;;;;;;;21.20;78.04;101370.69;5053213;28;20028;-64
2023/06/29 06:32:14;;;;;;;29.73;18.90;;;;;;;21.30;76.98;101363.28;5053192;28;20028;-63
2023/06/29 06:34:40;;;;;;;26.48;18.27;;;;;;;21.33;76.84;101371.31;5053119;28;20032;-63
2023/06/29 06:37:06;;;;;;;29.73;18.42;;;;;;;21.33;75.97;101365.06;5052904;28;20033;-63
2023/06/29 06:39:32;;;;;;;27.48;18.42;;;;;;;21.41;76.54;101357.66;5052990;28;20114;-63
2023/06/29 06:41:59;;;;;;;29.27;18.60;;;;;;;21.39;76.29;101362.19;5051139;28;20033;-63
2023/06/29 06:44:25;;;;;;;31.05;18.58;;;;;;;21.40;75.70;101364.84;5053377;28;20039;-64
2023/06/29 06:46:50;;;;;;;26.17;18.10;;;;;;;21.46;75.99;101361.13;5053204;28;20029;-64
2023/06/29 06:49:16;;;;;;;26.83;17.98;;;;;;;21.57;75.49;101363.50;5053055;28;20473;-62
2023/06/29 06:51:41;;;;;;;31.05;19.15;;;;;;;21.62;76.02;101365.16;5053157;28;20175;-63
2023/06/29 06:54:07;;;;;;;26.40;17.30;;;;;;;21.73;74.91;101368.44;5052919;28;20405;-63
2023/06/29 06:56:32;;;;;;;24.27;17.17;;;;;;;21.77;73.85;101363.88;5053080;28;20032;-63
2023/06/29 06:58:58;;;;;;;26.65;18.08;;;;;;;21.81;74.32;101354.78;5052774;28;20124;-63
2023/06/29 07:01:24;;;;;;;25.98;17.75;;;;;;;21.88;73.44;101363.56;5052679;28;20112;-63
2023/06/29 07:03:51;;;;;;;25.27;17.15;;;;;;;21.98;73.27;101365.97;5052767;28;20033;-64
2023/06/29 07:06:17;;;;;;;28.13;19.10;;;;;;;22.06;73.74;101364.88;5052882;28;20044;-63
2023/06/29 07:08:42;;;;;;;28.98;17.98;;;;;;;22.18;72.33;101357.38;5052661;28;20033;-63
2023/06/29 07:11:08;;;;;;;28.55;18.42;;;;;;;22.37;71.91;101360.38;5052663;28;20037;-63
2023/06/29 07:13:33;;;;;;;30.00;18.27;;;;;;;22.58;71.24;101357.97;5052445;28;20035;-63
2023/06/29 07:15:58;;;;;;;33.60;17.88;;;;;;;22.94;69.81;101359.50;5052488;28;20036;-63
2023/06/29 07:18:24;;;;;;;26.30;18.13;;;;;;;23.24;67.68;101362.13;5052954;28;20539;-63
2023/06/29 07:20:50;;;;;;;25.75;16.85;;;;;;;23.55;66.58;101356.56;5052628;28;20040;-62
2023/06/29 07:23:16;;;;;;;23.33;15.85;;;;;;;23.70;63.25;101365.97;5052886;28;20037;-63
2023/06/29 07:25:41;;;;;;;24.00;15.73;;;;;;;23.68;63.21;101352.56;5052562;28;20036;-63
2023/06/29 07:28:07;;;;;;;24.15;15.95;;;;;;;23.79;62.17;101357.56;5052454;28;20029;-63
2023/06/29 07:30:32;;;;;;;25.65;17.13;;;;;;;23.90;63.09;101355.34;5052595;28;20040;-62
2023/06/29 07:32:58;;;;;;;23.33;16.40;;;;;;;23.93;61.44;101360.63;5051294;28;20432;-62
2023/06/29 07:35:23;;;;;;;24.98;16.52;;;;;;;24.06;60.52;101358.34;5052492;28;20470;-63
2023/06/29 07:37:49;;;;;;;25.25;16.60;;;;;;;24.07;59.46;101353.81;5052560;28;20025;-63
2023/06/29 07:40:14;;;;;;;23.17;17.05;;;;;;;24.15;59.95;101354.44;5052160;28;20045;-62
2023/06/29 07:42:40;;;;;;;23.42;16.17;;;;;;;24.32;58.58;101346.56;5052486;28;20065;-63
2023/06/29 07:45:08;;;;;;;25.10;16.80;;;;;;;24.41;58.60;101345.34;5052402;28;20031;-63
2023/06/29 07:47:34;;;;;;;23.92;16.20;;;;;;;24.47;57.60;101359.53;5051353;28;20036;-63
2023/06/29 07:49:59;;;;;;;27.90;16.85;;;;;;;24.46;56.06;101344.25;5052259;28;20025;-63
2023/06/29 07:52:25;;;;;;;26.58;16.60;;;;;;;24.44;56.77;101347.94;5052780;28;20029;-64
2023/06/29 07:54:50;;;;;;;24.75;16.25;;;;;;;24.55;56.96;101347.53;5056101;28;20025;-63
2023/06/29 07:57:16;;;;;;;26.70;17.90;;;;;;;24.66;56.98;101350.69;5056100;28;20029;-63
2023/06/29 07:59:41;;;;;;;25.20;17.00;;;;;;;24.86;55.46;101356.19;5056214;28;20116;-63
2023/06/29 08:02:07;;;;;;;24.30;17.17;;;;;;;24.91;55.65;101342.47;5055772;28;20086;-63
2023/06/29 08:04:33;;;;;;;23.65;17.38;;;;;;;25.04;54.70;101340.13;5056263;28;20025;-63
2023/06/29 08:06:58;;;;;;;23.95;16.35;;;;;;;25.07;54.66;101340.91;5055871;28;20028;-63
2023/06/29 08:09:24;;;;;;;25.92;16.85;;;;;;;24.99;54.36;101340.34;5055869;28;20136;-63
2023/06/29 08:11:49;;;;;;;23.50;16.67;;;;;;;25.02;54.77;101342.91;5055662;28;20025;-63
2023/06/29 08:14:15;;;;;;;27.38;17.83;;;;;;;24.96;54.19;101338.63;5055817;28;20037;-63
2023/06/29 08:16:40;;;;;;;24.38;17.10;;;;;;;24.91;54.41;101337.94;5054261;28;20086;-63
2023/06/29 08:19:05;;;;;;;24.55;17.33;;;;;;;24.82;54.38;101334.75;5055776;28;20382;-63
2023/06/29 08:21:31;;;;;;;23.13;16.35;;;;;;;24.68;55.26;101327.19;5055691;28;20033;-63
2023/06/29 08:23:56;;;;;;;26.75;16.48;;;;;;;24.66;55.00;101329.06;5055616;28;20074;-63
2023/06/29 08:26:22;;;;;;;23.65;16.75;;;;;;;24.67;55.66;101333.56;5055600;28;20029;-63
2023/06/29 08:28:47;;;;;;;26.13;16.55;;;;;;;24.66;55.32;101339.88;5055666;28;20082;-63
2023/06/29 08:31:13;;;;;;;26.55;16.77;;;;;;;24.74;55.91;101337.75;5054067;28;20056;-63
2023/06/29 08:33:38;;;;;;;23.88;16.70;;;;;;;24.73;54.73;101339.56;5055617;28;20120;-63
2023/06/29 08:36:04;;;;;;;25.83;17.58;;;;;;;24.79;55.94;101340.25;5055340;28;20053;-63
2023/06/29 08:38:29;;;;;;;27.48;17.13;;;;;;;24.85;54.83;101340.03;5055057;28;20025;-63
2023/06/29 08:40:58;;;;;;;27.17;17.70;;;;;;;24.80;54.46;101348.31;5055583;28;20503;-63
2023/06/29 08:43:24;;;;;;;30.60;17.42;;;;;;;24.83;54.85;101333.78;5055175;28;20103;-63
2023/06/29 08:45:52;;;;;;;24.75;17.80;;;;;;;24.74;54.08;101337.75;5055184;28;20428;-63
2023/06/29 08:48:18;;;;;;;25.98;18.27;;;;;;;24.73;54.06;101339.56;5055168;28;20099;-63
2023/06/29 08:50:52;;;;;;;30.08;18.65;;;;;;;24.77;54.55;101324.13;5055517;28;20063;-63
2023/06/29 08:53:18;;;;;;;26.88;17.83;;;;;;;24.64;54.96;101336.38;5055444;28;20029;-63
2023/06/29 08:55:44;;;;;;;26.33;18.77;;;;;;;24.72;55.36;101334.25;5053868;28;20029;-62
2023/06/29 08:58:10;;;;;;;28.13;18.35;;;;;;;24.92;55.34;101331.59;5054986;28;20498;-63
2023/06/29 09:00:37;;;;;;;28.90;18.65;;;;;;;24.96;54.88;101335.03;5053754;28;20048;-63
2023/06/29 09:03:04;;;;;;;31.02;18.98;;;;;;;25.01;54.43;101330.34;5055031;28;20029;-63
2023/06/29 09:05:29;;;;;;;27.15;19.35;;;;;;;25.33;54.06;101330.84;5054762;28;20021;-63
2023/06/29 09:07:55;;;;;;;27.40;18.83;;;;;;;25.44;53.58;101315.91;5054735;28;20029;-63
2023/06/29 09:10:22;;;;;;;29.73;17.75;;;;;;;26.00;52.95;101322.47;5054762;28;20032;-63
2023/06/29 09:12:49;;;;;;;26.35;17.73;;;;;;;26.28;50.72;101315.75;5054529;28;20083;-63
2023/06/29 09:15:16;;;;;;;22.58;17.25;;;;;;;26.26;50.45;101320.38;5054570;28;20321;-63
2023/06/29 09:17:45;;;;;;;24.85;17.73;;;;;;;26.44;49.58;101314.97;5054632;28;20029;-63
2023/06/29 09:20:15;;;;;;;26.27;17.75;;;;;;;26.68;49.39;101325.56;5054801;28;20028;-63
2023/06/29 09:22:42;;;;;;;27.20;18.10;;;;;;;26.82;49.00;101317.66;5054649;28;20119;-63
2023/06/29 09:25:13;;;;;;;24.17;18.13;;;;;;;26.83;48.25;101318.53;5054505;28;20062;-63
2023/06/29 09:27:38;;;;;;;24.50;17.30;;;;;;;26.93;47.50;101311.69;5054796;28;20041;-63
2023/06/29 09:30:06;;;;;;;26.02;17.27;;;;;;;26.89;48.10;101310.94;5054395;28;20043;-63
2023/06/29 09:32:36;;;;;;;23.35;16.17;;;;;;;26.87;48.28;101315.59;5053717;28;20124;-63
2023/06/29 09:35:08;;;;;;;25.77;15.70;;;;;;;26.69;47.40;101311.09;5054244;28;20029;-63
2023/06/29 09:37:35;;;;;;;22.10;15.25;;;;;;;26.53;47.28;101307.34;5054194;28;20116;-63
2023/06/29 09:40:11;;;;;;;22.15;16.10;;;;;;;26.38;48.16;101317.06;5053955;28;20399;-63
2023/06/29 09:42:37;;;;;;;22.60;16.00;;;;;;;26.26;48.04;101315.81;5054259;28;20048;-62
2023/06/29 09:45:07;;;;;;;22.13;15.38;;;;;;;26.23;49.49;101321.38;5054337;28;20033;-62
2023/06/29 09:47:33;;;;;;;20.90;14.60;;;;;;;26.17;48.63;101313.56;5053861;28;20474;-63
2023/06/29 09:49:58;;;;;;;24.63;15.57;;;;;;;26.16;49.12;101311.78;5052719;28;20041;-63
2023/06/29 09:52:23;;;;;;;22.10;16.35;;;;;;;26.08;49.59;101320.28;5054050;28;20025;-62
2023/06/29 09:54:52;;;;;;;23.48;16.17;;;;;;;26.02;49.86;101325.97;5054160;28;20147;-63
2023/06/29 09:57:18;;;;;;;23.52;16.10;;;;;;;25.89;49.73;101322.06;5053811;28;20497;-62
2023/06/29 09:59:44;;;;;;;23.10;16.17;;;;;;;25.85;49.55;101321.31;5053792;28;20037;-63
2023/06/29 10:02:10;;;;;;;23.13;16.30;;;;;;;25.81;49.79;101324.22;5053938;28;20036;-62
2023/06/29 10:04:36;;;;;;;23.15;16.45;;;;;;;25.67;49.98;101319.41;5053736;28;20037;-63
2023/06/29 10:07:11;;;;;;;26.20;17.30;;;;;;;25.71;49.65;101316.50;5053627;28;20039;-63
2023/06/29 10:09:38;;;;;;;22.40;16.55;;;;;;;25.65;50.70;101324.91;5053632;28;20090;-62
2023/06/29 10:12:06;;;;;;;23.70;16.35;;;;;;;25.69;49.46;101322.91;5052217;28;20029;-63
2023/06/29 10:14:33;;;;;;;25.75;18.20;;;;;;;25.61;50.66;101322.38;5053539;28;20538;-63
2023/06/29 10:17:01;;;;;;;26.48;17.88;;;;;;;25.65;50.95;101315.88;5053196;28;20027;-62
2023/06/29 10:19:28;;;;;;;35.00;18.17;;;;;;;25.63;51.22;101315.97;5053572;28;20029;-63
2023/06/29 10:21:59;;;;;;;30.30;18.23;;;;;;;25.55;51.54;101318.13;5053989;28;20028;-63
2023/06/29 10:24:29;;;;;;;28.10;19.05;;;;;;;25.33;52.31;101320.88;5053494;28;20083;-63
2023/06/29 10:26:55;;;;;;;25.98;18.92;;;;;;;25.34;52.33;101319.06;5053995;28;20383;-63
2023/06/29 10:29:20;;;;;;;28.48;19.30;;;;;;;25.41;52.22;101321.44;5053282;28;20025;-62
2023/06/29 10:31:49;;;;;;;27.55;19.00;;;;;;;25.50;52.11;101308.44;5053161;28;20432;-63
2023/06/29 10:34:15;;;;;;;29.15;19.55;;;;;;;25.70;51.41;101313.88;5053175;28;20509;-63
2023/06/29 10:36:49;;;;;;;30.08;19.33;;;;;;;25.79;51.20;101316.19;5053061;28;20017;-62
2023/06/29 10:39:44;;;;;;;30.90;19.60;;;;;;;25.89;51.92;101314.81;5053016;28;20120;-63
2023/06/29 10:42:38;;;;;;;34.10;19.77;;;;;;;25.82;51.48;101318.72;5051753;28;20041;-63
2023/06/29 10:45:09;;;;;;;30.10;19.65;;;;;;;25.72;51.42;101320.06;5052877;28;20025;-62
2023/06/29 10:47:39;;;;;;;26.70;18.88;;;;;;;25.61;50.61;101320.56;5053199;28;20029;-63
2023/06/29 10:50:10;;;;;;;29.58;19.02;;;;;;;25.51;50.33;101321.91;5053160;28;20048;-64
2023/06/29 10:52:39;;;;;;;30.20;20.15;;;;;;;25.45;51.34;101314.94;5053031;28;20036;-63
2023/06/29 10:55:20;;;;;;;28.58;19.52;;;;;;;25.47;51.35;101313.03;5052914;28;20048;-63
2023/06/29 10:57:47;;;;;;;28.42;19.83;;;;;;;25.47;50.20;101307.63;5052964;28;20243;-63
2023/06/29 11:00:14;;;;;;;26.83;19.42;;;;;;;25.43;50.45;101303.28;5052851;28;20025;-63
2023/06/29 11:02:45;;;;;;;29.30;19.27;;;;;;;25.47;50.52;101309.44;5052658;28;20091;-63
2023/06/29 11:05:15;;;;;;;26.92;19.63;;;;;;;25.43;51.24;101314.13;5053020;28;20021;-63
2023/06/29 11:07:41;;;;;;;28.25;19.75;;;;;;;25.52;50.53;101304.72;5052766;28;20068;-63